createdAt,value
2022-09-06T00:00:27.911Z,102068.53
2022-09-06T00:02:57.021Z,102067.25
2022-09-06T00:05:25.686Z,102062.94
2022-09-06T00:07:56.143Z,102054.75
2022-09-06T00:10:24.633Z,102059.91
2022-09-06T00:12:53.439Z,102053.88
2022-09-06T00:15:22.518Z,102053.88
2022-09-06T00:17:51.756Z,102045.69
2022-09-06T00:20:20.718Z,102040.50
2022-09-06T00:22:49.302Z,102050.00
2022-09-06T00:25:19.363Z,102054.66
2022-09-06T00:27:47.841Z,102058.41
2022-09-06T00:30:16.773Z,102057.66
2022-09-06T00:32:45.417Z,102059.28
2022-09-06T00:35:13.985Z,102072.78
2022-09-06T00:37:42.737Z,102064.06
2022-09-06T00:40:11.831Z,102061.56
2022-09-06T00:42:42.229Z,102057.47
2022-09-06T00:45:13.328Z,102054.25
2022-09-06T00:47:44.683Z,102050.00
2022-09-06T00:50:17.021Z,102040.44
2022-09-06T00:52:49.810Z,102042.69
2022-09-06T00:55:19.586Z,102039.91
2022-09-06T00:57:52.188Z,102050.16
2022-09-06T01:00:22.054Z,102044.41
2022-09-06T01:05:18.310Z,102054.44
2022-09-06T01:08:09.015Z,102058.22
2022-09-06T01:11:35.084Z,102059.72
2022-09-06T01:14:22.917Z,102063.50
2022-09-06T01:17:04.814Z,102062.75
2022-09-06T01:20:10.773Z,102051.72
2022-09-06T01:23:22.330Z,102034.50
2022-09-06T01:26:12.338Z,102044.84
2022-09-06T01:28:46.625Z,102045.91
2022-09-06T01:31:30.580Z,102052.47
2022-09-06T01:34:21.833Z,102051.59
2022-09-06T01:37:09.962Z,102044.19
2022-09-06T01:39:41.705Z,102034.72
2022-09-06T01:42:14.928Z,102037.28
2022-09-06T01:44:52.916Z,102038.91
2022-09-06T01:47:39.927Z,102027.59
2022-09-06T01:50:41.367Z,102028.66
2022-09-06T01:53:35.478Z,102033.59
2022-09-06T01:56:21.227Z,102034.69
2022-09-06T01:59:13.600Z,102046.84
2022-09-06T02:01:53.541Z,102042.59
2022-09-06T02:04:29.969Z,102047.81
2022-09-06T02:07:04.705Z,102044.56
2022-09-06T02:09:41.129Z,102040.91
2022-09-06T02:12:13.604Z,102042.84
2022-09-06T02:14:51.526Z,102039.28
2022-09-06T02:17:32.862Z,102041.88
2022-09-06T02:20:09.331Z,102036.13
2022-09-06T02:22:47.151Z,102039.00
2022-09-06T02:25:25.907Z,102042.66
2022-09-06T02:27:56.352Z,102048.72
2022-09-06T02:30:25.416Z,102040.25
2022-09-06T02:33:01.151Z,102040.56
2022-09-06T02:35:30.379Z,102046.19
2022-09-06T02:37:59.339Z,102042.72
2022-09-06T02:40:28.113Z,102044.84
2022-09-06T02:42:56.846Z,102037.75
2022-09-06T02:45:25.542Z,102031.41
2022-09-06T02:47:55.522Z,102033.47
2022-09-06T02:50:23.998Z,102034.41
2022-09-06T02:53:04.555Z,102032.59
2022-09-06T02:55:34.173Z,102042.50
2022-09-06T02:58:02.971Z,102037.09
2022-09-06T03:00:32.498Z,102039.94
2022-09-06T03:05:19.433Z,102030.56
2022-09-06T03:07:48.253Z,102030.22
2022-09-06T03:10:17.129Z,102026.56
2022-09-06T03:12:46.599Z,102026.56
2022-09-06T03:15:17.350Z,102024.94
2022-09-06T03:17:46.394Z,102028.03
2022-09-06T03:20:15.235Z,102016.63
2022-09-06T03:22:45.141Z,102026.19
2022-09-06T03:25:13.951Z,102016.53
2022-09-06T03:27:42.622Z,102016.63
2022-09-06T03:30:12.877Z,102010.81
2022-09-06T03:32:41.611Z,102013.44
2022-09-06T03:35:11.301Z,102002.94
2022-09-06T03:37:39.930Z,102002.19
2022-09-06T03:40:12.414Z,102008.03
2022-09-06T03:42:41.152Z,102002.94
2022-09-06T03:45:11.475Z,101997.97
2022-09-06T03:47:40.327Z,101996.16
2022-09-06T03:50:10.693Z,101989.16
2022-09-06T03:52:39.299Z,101985.59
2022-09-06T03:55:12.037Z,101989.06
2022-09-06T03:57:40.665Z,101991.84
2022-09-06T04:00:11.390Z,101981.00
2022-09-06T04:02:40.044Z,101981.50
2022-09-06T04:05:09.756Z,101977.06
2022-09-06T04:07:38.766Z,101983.63
2022-09-06T04:10:10.800Z,101977.56
2022-09-06T04:12:39.481Z,101981.34
2022-09-06T04:15:09.746Z,101982.31
2022-09-06T04:17:38.360Z,101979.06
2022-09-06T04:20:08.523Z,101974.09
2022-09-06T04:22:39.901Z,101981.28
2022-09-06T04:25:11.504Z,101984.16
2022-09-06T04:27:40.154Z,101981.28
2022-09-06T04:30:10.959Z,101977.84
2022-09-06T04:32:39.549Z,101971.91
2022-09-06T04:35:10.313Z,101984.06
2022-09-06T04:37:38.970Z,101980.81
2022-09-06T04:40:10.679Z,101980.91
2022-09-06T04:42:39.533Z,101981.88
2022-09-06T04:45:09.764Z,101979.28
2022-09-06T04:47:38.379Z,101982.94
2022-09-06T04:50:07.940Z,101974.50
2022-09-06T04:52:36.476Z,101979.75
2022-09-06T04:55:05.822Z,101985.59
2022-09-06T04:57:35.959Z,101983.75
2022-09-06T05:00:05.340Z,101985.41
2022-09-06T05:05:20.045Z,101984.03
2022-09-06T05:07:48.614Z,101995.34
2022-09-06T05:10:17.436Z,101991.28
2022-09-06T05:12:49.759Z,101978.59
2022-09-06T05:15:18.664Z,101983.56
2022-09-06T05:17:47.560Z,101984.31
2022-09-06T05:20:16.661Z,101982.19
2022-09-06T05:22:54.791Z,101976.38
2022-09-06T05:25:23.942Z,101976.84
2022-09-06T05:27:52.619Z,101973.81
2022-09-06T05:30:21.535Z,101977.91
2022-09-06T05:32:55.197Z,101966.66
2022-09-06T05:35:23.796Z,101973.03
2022-09-06T05:37:54.496Z,101972.09
2022-09-06T05:40:23.143Z,101964.00
2022-09-06T05:42:51.939Z,101960.53
2022-09-06T05:45:20.853Z,101965.63
2022-09-06T05:47:53.730Z,101964.19
2022-09-06T05:50:22.279Z,101968.94
2022-09-06T05:52:54.470Z,101959.78
2022-09-06T05:55:23.424Z,101966.44
2022-09-06T05:57:53.173Z,101965.88
2022-09-06T06:00:22.261Z,101961.34
2022-09-06T06:02:51.470Z,101968.34
2022-09-06T06:05:20.342Z,101968.88
2022-09-06T06:07:49.341Z,101971.13
2022-09-06T06:10:19.561Z,101966.69
2022-09-06T06:12:48.241Z,101967.66
2022-09-06T06:15:17.023Z,101967.66
2022-09-06T06:17:45.612Z,101973.81
2022-09-06T06:20:14.425Z,101963.03
2022-09-06T06:22:43.287Z,101968.72
2022-09-06T06:25:12.905Z,101961.44
2022-09-06T06:27:43.157Z,101972.25
2022-09-06T06:30:17.788Z,101974.47
2022-09-06T06:32:47.380Z,101966.38
2022-09-06T06:35:16.226Z,101967.59
2022-09-06T06:37:45.966Z,101966.19
2022-09-06T06:40:14.824Z,101961.94
2022-09-06T06:42:44.778Z,101963.53
2022-09-06T06:45:13.411Z,101968.81
2022-09-06T06:47:42.054Z,101972.94
2022-09-06T06:50:11.718Z,101967.50
2022-09-06T06:52:40.928Z,101963.84
2022-09-06T06:55:13.368Z,101954.13
2022-09-06T06:57:43.526Z,101961.63
2022-09-06T07:00:13.973Z,101958.78
2022-09-06T07:08:15.459Z,101943.78
2022-09-06T07:10:44.510Z,101955.34
2022-09-06T07:13:14.071Z,101935.63
2022-09-06T07:15:42.867Z,101946.88
2022-09-06T07:18:12.783Z,101933.66
2022-09-06T07:26:24.512Z,101928.66
2022-09-06T07:28:55.020Z,101929.44
2022-09-06T07:34:13.289Z,101937.97
2022-09-06T07:36:43.387Z,101951.91
2022-09-06T07:39:14.971Z,101942.06
2022-09-06T07:41:44.767Z,101934.34
2022-09-06T07:44:13.333Z,101923.63
2022-09-06T07:46:42.399Z,101932.31
2022-09-06T07:49:11.430Z,101927.84
2022-09-06T07:51:40.139Z,101935.63
2022-09-06T07:54:30.130Z,101935.56
2022-09-06T07:56:59.509Z,101933.34
2022-09-06T07:59:28.497Z,101930.94
2022-09-06T08:01:57.149Z,101932.81
2022-09-06T08:04:25.918Z,101931.88
2022-09-06T08:09:44.613Z,101934.03
2022-09-06T08:12:13.289Z,101924.56
2022-09-06T08:14:41.975Z,101929.38
2022-09-06T08:17:10.588Z,101912.50
2022-09-06T08:19:39.247Z,101918.03
2022-09-06T08:22:08.443Z,101921.59
2022-09-06T08:24:37.111Z,101909.34
2022-09-06T08:27:08.356Z,101920.41
2022-09-06T08:29:38.257Z,101922.09
2022-09-06T08:32:08.299Z,101916.50
2022-09-06T08:34:37.137Z,101926.13
2022-09-06T08:37:05.671Z,101920.97
2022-09-06T08:39:34.340Z,101921.41
2022-09-06T08:42:08.378Z,101917.09
2022-09-06T08:47:25.714Z,101906.31
2022-09-06T08:50:01.519Z,101910.16
2022-09-06T08:53:13.260Z,101896.69
2022-09-06T08:55:44.463Z,101897.34
2022-09-06T08:58:46.933Z,101883.38
2022-09-06T09:01:23.386Z,101872.28
2022-09-06T09:05:36.393Z,101881.72
2022-09-06T09:08:17.872Z,101872.81
2022-09-06T09:10:51.439Z,101881.03
2022-09-06T09:13:32.212Z,101872.28
2022-09-06T09:16:01.115Z,101865.09
2022-09-06T09:18:35.308Z,101871.13
2022-09-06T09:21:11.602Z,101865.38
2022-09-06T09:23:40.178Z,101856.50
2022-09-06T09:26:15.450Z,101856.13
2022-09-06T09:29:09.476Z,101861.75
2022-09-06T09:31:41.673Z,101861.97
2022-09-06T09:34:15.125Z,101854.56
2022-09-06T09:39:39.476Z,101853.75
2022-09-06T09:42:10.531Z,101853.06
2022-09-06T09:44:45.901Z,101833.28
2022-09-06T09:47:29.300Z,101824.25
2022-09-06T09:49:58.760Z,101828.25
2022-09-06T09:52:31.781Z,101812.09
2022-09-06T09:55:05.337Z,101821.09
2022-09-06T09:57:47.074Z,101805.41
2022-09-06T10:00:33.330Z,101815.16
2022-09-06T10:03:02.816Z,101809.28
2022-09-06T10:05:31.622Z,101808.47
2022-09-06T10:08:01.725Z,101809.66
2022-09-06T10:10:36.737Z,101807.59
2022-09-06T10:13:13.960Z,101805.41
2022-09-06T10:15:43.995Z,101801.81
2022-09-06T10:18:32.254Z,101797.94
2022-09-06T10:21:04.429Z,101797.41
2022-09-06T10:26:52.858Z,101794.44
2022-09-06T10:29:34.285Z,101794.06
2022-09-06T10:32:30.981Z,101785.16
2022-09-06T10:35:14.338Z,101793.97
2022-09-06T10:38:00.735Z,101779.63
2022-09-06T10:40:35.756Z,101798.13
2022-09-06T10:43:09.921Z,101793.97
2022-09-06T10:45:55.065Z,101791.09
2022-09-06T10:48:30.923Z,101783.28
2022-09-06T10:51:07.793Z,101777.13
2022-09-06T10:53:52.984Z,101767.22
2022-09-06T10:56:31.412Z,101764.72
2022-09-06T11:05:40.453Z,101768.22
2022-09-06T11:11:15.521Z,101755.66
2022-09-06T11:13:47.478Z,101764.03
2022-09-06T11:16:27.587Z,101754.22
2022-09-06T11:19:02.895Z,101748.44
2022-09-06T11:22:09.946Z,101743.69
2022-09-06T11:25:13.442Z,101734.47
2022-09-06T11:27:46.857Z,101731.75
2022-09-06T11:30:18.933Z,101729.69
2022-09-06T11:32:54.770Z,101716.56
2022-09-06T11:35:27.665Z,101716.28
2022-09-06T11:38:05.399Z,101716.03
2022-09-06T11:40:41.746Z,101719.56
2022-09-06T11:43:18.828Z,101716.81
2022-09-06T11:45:51.541Z,101707.88
2022-09-06T11:49:03.685Z,101704.97
2022-09-06T11:51:39.799Z,101702.88
2022-09-06T11:54:28.790Z,101705.63
2022-09-06T11:57:03.982Z,101704.97
2022-09-06T11:59:43.421Z,101691.75
2022-09-06T12:02:38.081Z,101698.06
2022-09-06T12:05:25.738Z,101693.25
2022-09-06T12:08:29.380Z,101694.94
2022-09-06T12:11:06.812Z,101690.72
2022-09-06T12:13:55.740Z,101685.75
2022-09-06T12:16:25.765Z,101696.13
2022-09-06T12:19:02.603Z,101683.81
2022-09-06T12:21:46.173Z,101687.53
2022-09-06T12:24:58.010Z,101680.22
2022-09-06T12:27:33.285Z,101673.75
2022-09-06T12:30:05.360Z,101665.56
2022-09-06T12:32:39.540Z,101670.44
2022-09-06T12:38:09.646Z,101667.31
2022-09-06T12:40:45.518Z,101661.75
2022-09-06T12:43:18.617Z,101655.41
2022-09-06T12:45:50.810Z,101656.13
2022-09-06T12:48:29.940Z,101657.09
2022-09-06T12:51:07.463Z,101661.28
2022-09-06T12:53:37.068Z,101650.41
2022-09-06T12:56:08.697Z,101657.22
2022-09-06T12:58:38.974Z,101647.00
2022-09-06T13:01:16.982Z,101647.53
2022-09-06T13:05:18.683Z,101658.41
2022-09-06T13:07:53.937Z,101639.44
2022-09-06T13:10:27.362Z,101631.44
2022-09-06T13:12:59.788Z,101636.06
2022-09-06T13:15:31.912Z,101641.94
2022-09-06T13:18:24.066Z,101639.09
2022-09-06T13:21:07.480Z,101633.47
2022-09-06T13:23:48.136Z,101626.56
2022-09-06T13:26:34.051Z,101634.50
2022-09-06T13:29:13.325Z,101629.66
2022-09-06T13:31:47.590Z,101624.16
2022-09-06T13:34:23.771Z,101622.44
2022-09-06T13:36:56.652Z,101621.00
2022-09-06T13:39:34.188Z,101621.94
2022-09-06T13:42:07.607Z,101632.09
2022-09-06T13:44:38.869Z,101624.28
2022-09-06T13:47:07.774Z,101622.94
2022-09-06T13:49:36.657Z,101618.34
2022-09-06T13:52:08.222Z,101621.28
2022-09-06T13:54:37.614Z,101613.22
2022-09-06T13:57:06.207Z,101624.16
2022-09-06T13:59:35.527Z,101623.63
2022-09-06T14:02:10.014Z,101619.22
2022-09-06T14:04:39.172Z,101619.84
2022-09-06T14:07:09.655Z,101618.31
2022-09-06T14:09:38.534Z,101619.91
2022-09-06T14:12:10.380Z,101608.91
2022-09-06T14:14:39.332Z,101616.84
2022-09-06T14:17:08.294Z,101610.34
2022-09-06T14:19:37.372Z,101613.53
2022-09-06T14:22:07.100Z,101616.47
2022-09-06T14:24:39.645Z,101614.78
2022-09-06T14:27:08.714Z,101617.97
2022-09-06T14:29:37.388Z,101604.09
2022-09-06T14:32:06.197Z,101612.63
2022-09-06T14:34:34.839Z,101605.25
2022-09-06T14:37:03.861Z,101602.06
2022-09-06T14:39:32.658Z,101597.56
2022-09-06T14:42:02.646Z,101595.00
2022-09-06T14:44:31.517Z,101593.88
2022-09-06T14:47:00.308Z,101588.44
2022-09-06T14:49:28.932Z,101591.84
2022-09-06T14:51:57.468Z,101583.97
2022-09-06T14:54:29.238Z,101583.31
2022-09-06T14:56:58.223Z,101575.34
2022-09-06T14:59:28.783Z,101580.84
2022-09-06T15:05:20.899Z,101573.06
2022-09-06T15:07:49.844Z,101559.41
2022-09-06T15:10:20.262Z,101568.63
2022-09-06T15:12:48.822Z,101567.97
2022-09-06T15:15:17.547Z,101556.63
2022-09-06T15:17:46.946Z,101562.56
2022-09-06T15:20:17.203Z,101560.03
2022-09-06T15:22:47.135Z,101556.69
2022-09-06T15:25:15.920Z,101560.41
2022-09-06T15:27:44.542Z,101562.13
2022-09-06T15:30:15.320Z,101556.03
2022-09-06T15:32:44.904Z,101560.56
2022-09-06T15:35:13.459Z,101549.88
2022-09-06T15:37:41.969Z,101549.09
2022-09-06T15:40:15.890Z,101542.31
2022-09-06T15:42:45.252Z,101537.66
2022-09-06T15:45:13.809Z,101538.34
2022-09-06T15:47:43.277Z,101544.13
2022-09-06T15:50:11.829Z,101547.50
2022-09-06T15:52:40.550Z,101542.78
2022-09-06T15:55:28.898Z,101544.47
2022-09-06T15:57:57.565Z,101542.72
2022-09-06T16:00:26.615Z,101540.34
2022-09-06T16:02:57.298Z,101537.94
2022-09-06T16:08:14.906Z,101530.59
2022-09-06T16:10:45.167Z,101530.69
2022-09-06T16:13:13.970Z,101534.94
2022-09-06T16:15:42.784Z,101548.22
2022-09-06T16:18:12.136Z,101542.22
2022-09-06T16:20:40.835Z,101551.38
2022-09-06T16:23:09.527Z,101543.84
2022-09-06T16:25:37.989Z,101541.03
2022-09-06T16:28:08.027Z,101547.28
2022-09-06T16:30:36.618Z,101538.22
2022-09-06T16:33:05.437Z,101546.38
2022-09-06T16:35:34.223Z,101539.72
2022-09-06T16:38:06.043Z,101545.31
2022-09-06T16:40:36.560Z,101545.97
2022-09-06T16:43:07.088Z,101547.47
2022-09-06T16:45:35.723Z,101544.38
2022-09-06T16:48:04.664Z,101538.72
2022-09-06T16:50:33.283Z,101539.38
2022-09-06T16:53:01.922Z,101532.84
2022-09-06T16:55:30.423Z,101534.88
2022-09-06T16:58:01.015Z,101536.06
2022-09-06T17:00:31.308Z,101543.75
2022-09-06T17:05:19.975Z,101538.31
2022-09-06T17:07:48.494Z,101537.84
2022-09-06T17:10:19.009Z,101533.66
2022-09-06T17:12:47.590Z,101533.09
2022-09-06T17:15:16.276Z,101532.91
2022-09-06T17:17:43.941Z,101534.56
2022-09-06T17:20:12.831Z,101535.00
2022-09-06T17:22:42.650Z,101537.19
2022-09-06T17:25:14.008Z,101534.09
2022-09-06T17:27:42.660Z,101534.88
2022-09-06T17:30:12.892Z,101529.19
2022-09-06T17:32:41.597Z,101524.72
2022-09-06T17:35:10.850Z,101535.03
2022-09-06T17:37:39.399Z,101536.66
2022-09-06T17:40:11.924Z,101542.03
2022-09-06T17:42:40.498Z,101546.59
2022-09-06T17:45:10.522Z,101552.97
2022-09-06T17:47:39.157Z,101549.28
2022-09-06T17:50:08.948Z,101553.78
2022-09-06T17:52:37.844Z,101556.41
2022-09-06T17:55:08.734Z,101548.28
2022-09-06T17:57:37.377Z,101558.75
2022-09-06T18:00:07.563Z,101559.47
2022-09-06T18:02:36.510Z,101559.53
2022-09-06T18:05:05.562Z,101550.25
2022-09-06T18:07:34.243Z,101553.28
2022-09-06T18:10:02.854Z,101559.31
2022-09-06T18:12:32.935Z,101554.47
2022-09-06T18:15:02.461Z,101550.47
2022-09-06T18:17:31.558Z,101545.44
2022-09-06T18:20:00.353Z,101554.03
2022-09-06T18:22:28.824Z,101555.03
2022-09-06T18:24:58.455Z,101562.88
2022-09-06T18:27:28.359Z,101561.63
2022-09-06T18:29:58.310Z,101569.19
2022-09-06T18:32:27.226Z,101568.78
2022-09-06T18:34:55.934Z,101568.50
2022-09-06T18:37:24.421Z,101566.91
2022-09-06T18:39:53.179Z,101564.94
2022-09-06T18:42:22.105Z,101570.75
2022-09-06T18:44:51.356Z,101567.94
2022-09-06T18:47:22.493Z,101560.50
2022-09-06T18:49:51.076Z,101578.47
2022-09-06T18:52:21.061Z,101565.34
2022-09-06T18:54:53.056Z,101567.19
2022-09-06T18:57:24.895Z,101566.19
2022-09-06T19:00:31.776Z,101569.59
2022-09-06T19:05:49.045Z,101576.84
2022-09-06T19:08:18.955Z,101574.13
2022-09-06T19:11:28.752Z,101576.06
2022-09-06T19:16:54.604Z,101575.94
2022-09-06T19:19:24.054Z,101579.63
2022-09-06T19:21:57.183Z,101569.34
2022-09-06T19:24:25.899Z,101569.16
2022-09-06T19:26:55.303Z,101574.28
2022-09-06T19:29:24.064Z,101577.94
2022-09-06T19:31:53.106Z,101579.75
2022-09-06T19:34:22.373Z,101578.72
2022-09-06T19:36:55.238Z,101585.78
2022-09-06T19:39:32.366Z,101577.41
2022-09-06T19:42:03.455Z,101575.50
2022-09-06T19:44:32.714Z,101567.47
2022-09-06T19:47:01.389Z,101563.56
2022-09-06T19:49:30.981Z,101564.84
2022-09-06T19:51:59.595Z,101553.16
2022-09-06T19:54:30.332Z,101555.47
2022-09-06T19:56:58.862Z,101550.72
2022-09-06T19:59:27.780Z,101556.00
2022-09-06T20:01:56.567Z,101550.25
2022-09-06T20:04:27.217Z,101541.16
2022-09-06T20:06:56.087Z,101546.91
2022-09-06T20:09:24.862Z,101540.50
2022-09-06T20:11:54.786Z,101537.94
2022-09-06T20:14:24.628Z,101536.63
2022-09-06T20:16:53.331Z,101541.09
2022-09-06T20:19:22.437Z,101535.47
2022-09-06T20:21:51.030Z,101540.88
2022-09-06T20:24:20.060Z,101541.28
2022-09-06T20:26:48.570Z,101532.84
2022-09-06T20:29:19.105Z,101538.03
2022-09-06T20:31:48.010Z,101538.56
2022-09-06T20:34:19.093Z,101535.63
2022-09-06T20:36:47.820Z,101537.88
2022-09-06T20:39:16.627Z,101535.28
2022-09-06T20:41:45.825Z,101539.38
2022-09-06T20:44:14.643Z,101537.81
2022-09-06T20:46:44.653Z,101528.97
2022-09-06T20:49:15.163Z,101545.16
2022-09-06T20:51:44.098Z,101536.72
2022-09-06T20:54:14.084Z,101535.28
2022-09-06T20:56:43.504Z,101539.47
2022-09-06T20:59:14.896Z,101540.72
2022-09-06T21:05:20.890Z,101528.47
2022-09-06T21:07:49.469Z,101523.19
2022-09-06T21:10:18.341Z,101516.34
2022-09-06T21:12:46.910Z,101516.97
2022-09-06T21:15:15.759Z,101515.63
2022-09-06T21:17:44.717Z,101509.38
2022-09-06T21:20:13.798Z,101518.44
2022-09-06T21:22:43.698Z,101522.84
2022-09-06T21:25:12.378Z,101527.03
2022-09-06T21:27:40.833Z,101530.75
2022-09-06T21:30:11.654Z,101530.56
2022-09-06T21:32:40.213Z,101523.25
2022-09-06T21:35:09.833Z,101529.72
2022-09-06T21:37:38.404Z,101522.13
2022-09-06T21:40:10.535Z,101526.94
2022-09-06T21:42:39.089Z,101516.25
2022-09-06T21:45:09.029Z,101521.16
2022-09-06T21:47:38.407Z,101517.84
2022-09-06T21:50:07.602Z,101521.88
2022-09-06T21:52:36.233Z,101516.63
2022-09-06T21:55:06.201Z,101505.22
2022-09-06T21:57:36.363Z,101508.41
2022-09-06T22:00:07.207Z,101500.66
2022-09-06T22:02:36.606Z,101502.00
2022-09-06T22:05:06.735Z,101493.19
2022-09-06T22:07:37.771Z,101496.38
2022-09-06T22:10:07.366Z,101494.66
2022-09-06T22:12:37.282Z,101491.84
2022-09-06T22:15:06.903Z,101492.69
2022-09-06T22:17:35.450Z,101489.88
2022-09-06T22:20:04.982Z,101489.53
2022-09-06T22:22:33.676Z,101477.00
2022-09-06T22:25:02.215Z,101478.47
2022-09-06T22:27:31.090Z,101483.97
2022-09-06T22:30:01.126Z,101483.50
2022-09-06T22:32:29.595Z,101484.97
2022-09-06T22:34:58.616Z,101477.88
2022-09-06T22:37:27.230Z,101483.50
2022-09-06T22:39:56.098Z,101478.72
2022-09-06T22:42:24.883Z,101471.75
2022-09-06T22:44:54.186Z,101478.38
2022-09-06T22:47:24.072Z,101475.91
2022-09-06T22:49:53.223Z,101475.06
2022-09-06T22:52:21.861Z,101468.69
2022-09-06T22:54:50.436Z,101468.22
2022-09-06T22:57:18.972Z,101465.25
2022-09-06T22:59:47.775Z,101466.03
2022-09-06T23:05:18.867Z,101458.53
2022-09-06T23:07:47.399Z,101460.47
2022-09-06T23:10:16.101Z,101448.47
2022-09-06T23:12:44.774Z,101449.59
2022-09-06T23:15:13.348Z,101440.53
2022-09-06T23:17:41.890Z,101447.50
2022-09-06T23:20:11.035Z,101439.78
2022-09-06T23:22:41.013Z,101444.94
2022-09-06T23:25:10.913Z,101433.41
2022-09-06T23:27:39.472Z,101428.03
2022-09-06T23:30:11.258Z,101429.75
2022-09-06T23:32:40.099Z,101428.28
2022-09-06T23:35:09.747Z,101436.38
2022-09-06T23:37:38.241Z,101430.97
2022-09-06T23:40:10.472Z,101434.66
2022-09-06T23:42:39.041Z,101430.47
2022-09-06T23:45:08.935Z,101436.13
2022-09-06T23:47:38.146Z,101432.69
2022-09-06T23:50:07.979Z,101436.59
2022-09-06T23:52:36.582Z,101439.41
2022-09-06T23:55:05.748Z,101444.31
2022-09-06T23:57:35.624Z,101440.75
